Readland, Arkansas
Current Conditions -  °F | °C
As of 11:53 PM on Thursday 18 Dec 2014 (Local Time) from KGLH Reporting Station
Overcast Overcast  
Wind Chill: 43°   Ceiling: 4100
Heat Index: 47°   Visibility: 8mi
Dew Point: 43°   Wind: 9mph
Humidity: 86%   Direction: 20°NNE
Pressure: 30.21"   Gusts: NA
Location:  33.1306°N, 91.2896°W
Report Text: KGLH 190553Z AUTO 02008KT 8SM OVC041 08/06 A3021 RMK AO2 SLP236 T00830061 10100 20083 401060050 50004
Loading
Personal Weather Stations






























Interactive Weather Map New forecast layout! Learn more

10-Day Weather Forecast

Advertisements
Track Severe Weather on mobile